Time;durP1;ratioP1;P1;durP2;ratioP2;P2;SDS_P1;SDS_P2;PMS_P1;PMS_P2;Temp;Humidity;BMP_temperature;BMP_pressure;BME280_temperature;BME280_humidity;BME280_pressure;Samples;Min_cycle;Max_cycle;Signal;HPM_P1;HPM_P2
2022/05/11 00:01:57;;;;;;;40.10;36.33;;;16.70;99.90;;;;;;4986832;28;20436;-78
2022/05/11 00:04:24;;;;;;;39.50;36.05;;;16.80;99.90;;;;;;4990049;28;20100;-77
2022/05/11 00:06:51;;;;;;;38.65;34.92;;;16.70;99.90;;;;;;4990935;28;20187;-77
2022/05/11 00:09:18;;;;;;;39.13;35.65;;;16.70;99.90;;;;;;4988699;28;20041;-78
2022/05/11 00:11:44;;;;;;;38.67;35.03;;;16.80;99.90;;;;;;4989472;28;20042;-78
2022/05/11 00:14:12;;;;;;;38.25;34.95;;;16.60;99.90;;;;;;5019450;28;20751;-78
2022/05/11 00:16:39;;;;;;;38.45;35.00;;;16.60;99.90;;;;;;4973492;28;20046;-78
2022/05/11 00:19:06;;;;;;;39.38;35.50;;;16.60;99.90;;;;;;4970959;28;20042;-78
2022/05/11 00:21:33;;;;;;;38.80;35.20;;;16.50;99.90;;;;;;4987350;28;20105;-78
2022/05/11 00:23:59;;;;;;;39.22;35.70;;;16.50;99.90;;;;;;4992662;28;20042;-78
2022/05/11 00:26:26;;;;;;;39.10;35.55;;;16.60;99.90;;;;;;4988987;28;20077;-77
2022/05/11 00:28:54;;;;;;;38.33;34.83;;;16.60;99.90;;;;;;4990998;28;20092;-78
2022/05/11 00:31:21;;;;;;;37.95;34.47;;;16.50;99.90;;;;;;4974218;28;20158;-78
2022/05/11 00:33:48;;;;;;;39.40;35.78;;;16.50;99.90;;;;;;4988291;28;20077;-76
2022/05/11 00:36:14;;;;;;;41.15;36.65;;;16.50;99.90;;;;;;5002761;28;20112;-78
2022/05/11 00:38:42;;;;;;;38.55;34.88;;;16.50;99.90;;;;;;4989604;28;20401;-78
2022/05/11 00:41:09;;;;;;;42.38;36.83;;;16.40;99.90;;;;;;4989326;28;20050;-78
2022/05/11 00:43:52;;;;;;;40.33;36.53;;;16.30;99.90;;;;;;5019699;28;20050;-78
2022/05/11 00:46:36;;;;;;;41.38;37.40;;;16.20;99.90;;;;;;4996893;28;20053;-78
2022/05/11 00:52:06;;;;;;;41.83;37.45;;;16.20;99.90;;;;;;4997300;28;20137;-78
2022/05/11 00:54:38;;;;;;;38.47;34.95;;;16.10;99.90;;;;;;4980849;28;20054;-78
2022/05/11 00:57:10;;;;;;;43.05;39.13;;;16.10;99.90;;;;;;4994270;28;20072;-77
2022/05/11 00:59:41;;;;;;;42.65;38.50;;;16.10;99.90;;;;;;4975980;28;20054;-75
2022/05/11 01:02:08;;;;;;;41.53;37.67;;;16.10;99.90;;;;;;5015826;28;20061;-77
2022/05/11 01:04:41;;;;;;;39.42;35.78;;;16.20;99.90;;;;;;4999872;28;20045;-78
2022/05/11 01:07:11;;;;;;;38.40;34.65;;;16.10;99.90;;;;;;5013932;28;20471;-76
2022/05/11 01:09:39;;;;;;;42.50;36.85;;;16.00;99.90;;;;;;4990058;28;20045;-76
2022/05/11 01:12:13;;;;;;;38.35;34.60;;;16.10;99.90;;;;;;4977126;28;20103;-77
2022/05/11 01:14:43;;;;;;;37.00;33.67;;;16.00;99.90;;;;;;5018301;28;20073;-77
2022/05/11 01:17:11;;;;;;;38.30;34.85;;;16.00;99.90;;;;;;4989111;28;20421;-78
2022/05/11 01:19:45;;;;;;;35.47;32.28;;;15.90;99.90;;;;;;4989394;28;20140;-77
2022/05/11 01:22:18;;;;;;;35.13;32.08;;;15.80;99.90;;;;;;5004304;28;20041;-78
2022/05/11 01:24:47;;;;;;;35.28;32.13;;;15.80;99.90;;;;;;5004497;28;20096;-75
2022/05/11 01:27:24;;;;;;;36.78;33.58;;;15.60;99.90;;;;;;4985950;28;20412;-76
2022/05/11 01:29:52;;;;;;;36.58;32.80;;;15.60;99.90;;;;;;5004372;28;20054;-76
2022/05/11 01:32:21;;;;;;;35.38;31.55;;;15.60;99.90;;;;;;5003414;28;20092;-76
2022/05/11 01:34:58;;;;;;;35.10;31.90;;;15.50;99.90;;;;;;4986530;28;20046;-76
2022/05/11 01:37:25;;;;;;;35.58;32.13;;;15.30;99.90;;;;;;5006290;28;20038;-76
2022/05/11 01:39:53;;;;;;;34.85;31.42;;;15.10;99.90;;;;;;5004683;28;20070;-76
2022/05/11 01:42:20;;;;;;;34.88;31.52;;;15.30;99.90;;;;;;4989032;28;20068;-76
2022/05/11 01:44:47;;;;;;;35.95;32.72;;;15.30;99.90;;;;;;5004520;28;20056;-76
2022/05/11 01:47:14;;;;;;;34.85;31.33;;;15.50;99.90;;;;;;5005100;28;20054;-76
2022/05/11 01:49:41;;;;;;;35.90;32.38;;;15.50;99.90;;;;;;5000647;28;20496;-76
2022/05/11 01:52:07;;;;;;;35.13;31.75;;;15.50;99.90;;;;;;4982973;28;20057;-76
2022/05/11 01:54:34;;;;;;;29.90;27.23;;;15.60;99.90;;;;;;4982018;28;20058;-76
2022/05/11 01:57:01;;;;;;;31.15;28.25;;;15.40;99.90;;;;;;5003686;28;20046;-76
2022/05/11 01:59:28;;;;;;;32.08;29.08;;;15.40;99.90;;;;;;4986663;28;20053;-76
2022/05/11 02:01:55;;;;;;;34.67;31.20;;;15.30;99.90;;;;;;5005050;28;20057;-77
2022/05/11 02:09:52;;;;;;;34.17;30.77;;;15.40;99.90;;;;;;4960265;23;20053;-74
2022/05/11 02:12:19;;;;;;;31.70;28.55;;;15.30;99.90;;;;;;5001004;28;20469;-73
2022/05/11 02:14:45;;;;;;;33.00;29.85;;;15.30;99.90;;;;;;4999964;28;20081;-75
2022/05/11 02:17:12;;;;;;;30.42;27.83;;;15.30;99.90;;;;;;4999598;28;20069;-75
2022/05/11 02:19:39;;;;;;;31.33;28.52;;;15.20;99.90;;;;;;4988896;28;20074;-75
2022/05/11 02:22:06;;;;;;;32.75;29.67;;;15.10;99.90;;;;;;4981199;28;20411;-76
2022/05/11 02:24:33;;;;;;;32.25;29.25;;;15.10;99.90;;;;;;4975136;28;20125;-75
2022/05/11 02:27:03;;;;;;;31.63;28.90;;;15.10;99.90;;;;;;5002983;28;20097;-76
2022/05/11 02:29:30;;;;;;;31.70;28.88;;;15.00;99.90;;;;;;5002271;28;20176;-74
2022/05/11 02:31:56;;;;;;;32.75;29.65;;;15.00;99.90;;;;;;4999961;28;20100;-75
2022/05/11 02:37:09;;;;;;;32.78;29.75;;;15.00;99.90;;;;;;5002850;28;20049;-74
2022/05/11 02:39:35;;;;;;;32.78;29.45;;;14.90;99.90;;;;;;4999540;28;20527;-75
2022/05/11 02:42:02;;;;;;;31.63;28.67;;;14.70;99.90;;;;;;5004852;28;20073;-75
2022/05/11 02:44:29;;;;;;;30.17;27.35;;;14.80;99.90;;;;;;5005074;28;20078;-75
2022/05/11 02:46:56;;;;;;;31.42;28.35;;;14.80;99.90;;;;;;5012790;28;20046;-74
2022/05/11 02:49:23;;;;;;;32.00;29.15;;;14.80;99.90;;;;;;5005782;28;20054;-75
2022/05/11 02:51:50;;;;;;;31.60;28.48;;;14.80;99.90;;;;;;5006281;28;20073;-74
2022/05/11 02:54:17;;;;;;;32.80;29.67;;;14.70;99.90;;;;;;5004295;28;20176;-75
2022/05/11 02:56:44;;;;;;;30.25;27.40;;;14.80;99.90;;;;;;5019860;28;20496;-75
2022/05/11 02:59:10;;;;;;;31.88;28.65;;;14.70;99.90;;;;;;5004736;28;20053;-75
2022/05/11 03:01:37;;;;;;;30.60;28.00;;;14.70;99.90;;;;;;5003471;28;20133;-75
2022/05/11 03:04:04;;;;;;;32.13;28.98;;;14.80;99.90;;;;;;5003536;28;20045;-76
2022/05/11 03:06:31;;;;;;;31.58;28.27;;;14.70;99.90;;;;;;5020634;28;20038;-76
2022/05/11 03:08:57;;;;;;;28.80;26.40;;;14.60;99.90;;;;;;4989023;28;20460;-74
2022/05/11 03:11:24;;;;;;;29.77;26.95;;;14.50;99.90;;;;;;5004919;28;20044;-77
2022/05/11 03:13:51;;;;;;;30.67;27.52;;;14.50;99.90;;;;;;5014663;28;20127;-76
2022/05/11 03:16:25;;;;;;;29.70;27.20;;;14.40;99.90;;;;;;5006938;28;20050;-73
2022/05/11 03:18:52;;;;;;;28.60;25.95;;;14.50;99.90;;;;;;5005622;28;20050;-74
2022/05/11 03:21:25;;;;;;;28.02;25.67;;;14.40;99.90;;;;;;5003462;28;20293;-75
2022/05/11 03:23:51;;;;;;;28.25;25.60;;;14.20;99.90;;;;;;5002707;28;20144;-75
2022/05/11 03:26:18;;;;;;;27.05;24.75;;;14.20;99.90;;;;;;5003256;28;20673;-74
2022/05/11 03:28:45;;;;;;;26.13;23.92;;;14.20;99.90;;;;;;5010175;28;20107;-75
2022/05/11 03:31:12;;;;;;;27.50;24.85;;;14.30;99.90;;;;;;5004418;28;20353;-75
2022/05/11 03:36:25;;;;;;;28.35;25.92;;;14.40;99.90;;;;;;5004935;28;20460;-76
2022/05/11 03:38:51;;;;;;;28.58;25.88;;;14.40;99.90;;;;;;5004240;28;20136;-76
2022/05/11 03:41:18;;;;;;;32.72;25.35;;;14.40;99.90;;;;;;5011267;28;20046;-74
2022/05/11 03:43:45;;;;;;;27.73;25.33;;;14.40;99.90;;;;;;5028976;28;20034;-74
2022/05/11 03:46:14;;;;;;;28.20;25.55;;;14.40;99.90;;;;;;5005180;28;20057;-75
2022/05/11 03:48:41;;;;;;;28.67;25.67;;;14.40;99.90;;;;;;5003484;28;20558;-76
2022/05/11 03:51:10;;;;;;;28.95;26.35;;;14.40;99.90;;;;;;4987106;28;20064;-76
2022/05/11 03:53:37;;;;;;;28.45;26.05;;;14.30;99.90;;;;;;4982747;28;20671;-74
2022/05/11 03:56:04;;;;;;;27.05;24.77;;;14.10;99.90;;;;;;4980599;28;20061;-75
2022/05/11 03:58:31;;;;;;;27.40;24.77;;;14.20;99.90;;;;;;4986607;28;20364;-76
2022/05/11 04:00:57;;;;;;;29.30;26.58;;;14.10;99.90;;;;;;5003169;28;20500;-75
2022/05/11 04:03:24;;;;;;;28.52;25.67;;;14.10;99.90;;;;;;5002470;28;20052;-76
2022/05/11 04:05:52;;;;;;;28.50;25.95;;;14.30;99.90;;;;;;5004650;28;20176;-76
2022/05/11 04:08:19;;;;;;;30.52;27.13;;;14.30;99.90;;;;;;5004276;28;20138;-76
2022/05/11 04:10:45;;;;;;;28.65;26.13;;;14.30;99.90;;;;;;5003371;28;20548;-75
2022/05/11 04:13:12;;;;;;;30.45;27.38;;;14.30;99.90;;;;;;5003042;28;20034;-76
2022/05/11 04:15:39;;;;;;;30.02;27.33;;;14.30;99.90;;;;;;5015248;28;20108;-74
2022/05/11 04:18:06;;;;;;;30.08;27.10;;;14.30;99.90;;;;;;5003320;28;20646;-75
2022/05/11 04:20:33;;;;;;;29.73;26.92;;;14.30;99.90;;;;;;5002486;28;20081;-76
2022/05/11 04:22:59;;;;;;;27.95;25.23;;;14.30;99.90;;;;;;5003382;28;20065;-74
2022/05/11 04:25:26;;;;;;;26.75;24.48;;;14.10;99.90;;;;;;5018437;28;20864;-76
2022/05/11 04:27:53;;;;;;;29.00;26.23;;;14.20;99.90;;;;;;5002399;28;20077;-74
2022/05/11 04:30:22;;;;;;;28.10;25.27;;;14.20;99.90;;;;;;5001861;28;20128;-76
2022/05/11 04:32:49;;;;;;;26.42;24.02;;;14.00;99.90;;;;;;5004457;28;20053;-75
2022/05/11 04:35:16;;;;;;;27.52;24.98;;;14.00;99.90;;;;;;5003499;28;20582;-75
2022/05/11 04:37:44;;;;;;;27.70;24.95;;;14.20;99.90;;;;;;5018520;28;20057;-76
2022/05/11 04:40:11;;;;;;;26.92;24.48;;;14.20;99.90;;;;;;5017851;28;20100;-75
2022/05/11 04:42:43;;;;;;;26.98;24.33;;;14.30;99.90;;;;;;5001822;28;20049;-76
2022/05/11 04:45:10;;;;;;;28.55;26.05;;;14.40;99.90;;;;;;5019491;28;20067;-75
2022/05/11 04:47:38;;;;;;;28.58;25.85;;;14.50;99.90;;;;;;5019124;28;20037;-75
2022/05/11 04:50:06;;;;;;;29.23;26.92;;;14.70;99.90;;;;;;4996085;28;20042;-76
2022/05/11 04:52:33;;;;;;;29.65;26.98;;;14.60;99.90;;;;;;5002512;28;20644;-76
2022/05/11 04:55:00;;;;;;;28.55;25.75;;;14.60;99.90;;;;;;5002688;28;20123;-76
2022/05/11 04:57:28;;;;;;;30.25;27.80;;;14.80;99.90;;;;;;5003374;28;20346;-74
2022/05/11 04:59:56;;;;;;;29.65;27.25;;;15.00;99.90;;;;;;5005410;28;20408;-74
2022/05/11 05:02:25;;;;;;;32.10;29.23;;;15.10;99.90;;;;;;5002050;28;20077;-75
2022/05/11 05:04:52;;;;;;;30.80;28.08;;;15.20;99.90;;;;;;4999755;28;20424;-74
2022/05/11 05:07:19;;;;;;;31.30;28.55;;;15.20;99.90;;;;;;5000867;28;20586;-74
2022/05/11 05:09:45;;;;;;;31.95;28.88;;;15.30;99.90;;;;;;5000925;28;20041;-75
2022/05/11 05:12:13;;;;;;;32.40;29.58;;;15.40;99.90;;;;;;5004021;28;20451;-76
2022/05/11 05:14:42;;;;;;;32.45;29.83;;;15.40;99.90;;;;;;5003926;28;20136;-75
2022/05/11 05:17:15;;;;;;;33.42;30.63;;;15.50;99.90;;;;;;4998578;28;20054;-76
2022/05/11 05:19:44;;;;;;;34.15;30.98;;;15.60;99.90;;;;;;4984581;28;20042;-75
2022/05/11 05:22:12;;;;;;;32.95;30.05;;;15.70;99.90;;;;;;5006919;28;20512;-76
2022/05/11 05:24:38;;;;;;;37.10;33.80;;;15.80;99.90;;;;;;4985375;28;20476;-76
2022/05/11 05:27:05;;;;;;;35.05;31.88;;;15.90;99.90;;;;;;5003340;28;20054;-74
2022/05/11 05:32:18;;;;;;;35.58;32.65;;;16.20;99.90;;;;;;5001368;28;20058;-76
2022/05/11 05:34:45;;;;;;;35.90;32.17;;;16.40;99.90;;;;;;5001189;28;20044;-76
2022/05/11 05:37:14;;;;;;;34.40;31.30;;;16.40;99.90;;;;;;5002022;28;20457;-75
2022/05/11 05:39:40;;;;;;;33.88;31.02;;;16.60;99.90;;;;;;5000348;28;20101;-74
2022/05/11 05:42:08;;;;;;;34.60;31.75;;;16.80;99.90;;;;;;5003898;28;20050;-75
2022/05/11 05:44:37;;;;;;;35.38;32.40;;;16.90;99.90;;;;;;4994280;28;20156;-75
2022/05/11 05:47:05;;;;;;;36.65;33.35;;;16.90;99.90;;;;;;5001789;28;20100;-75
2022/05/11 05:49:33;;;;;;;38.50;34.92;;;17.00;99.90;;;;;;5001856;28;20423;-73
2022/05/11 05:52:01;;;;;;;37.42;34.08;;;17.00;99.90;;;;;;5016391;28;20087;-76
2022/05/11 05:54:32;;;;;;;35.45;32.42;;;17.00;99.90;;;;;;5017583;28;20124;-76
2022/05/11 05:56:59;;;;;;;36.40;33.65;;;17.00;99.90;;;;;;5013176;28;20069;-75
2022/05/11 05:59:26;;;;;;;36.47;33.40;;;17.20;99.90;;;;;;5017827;28;20123;-76
2022/05/11 06:01:53;;;;;;;37.75;34.45;;;17.60;99.90;;;;;;5002085;28;20073;-74
2022/05/11 06:04:20;;;;;;;37.67;34.78;;;17.80;99.90;;;;;;5016932;28;20172;-76
2022/05/11 06:06:47;;;;;;;38.85;35.70;;;18.00;99.90;;;;;;5002734;28;20194;-76
2022/05/11 06:09:14;;;;;;;38.15;34.90;;;18.20;99.90;;;;;;5013137;28;20458;-75
2022/05/11 06:11:41;;;;;;;38.03;34.95;;;18.40;99.90;;;;;;4999388;28;20537;-75
2022/05/11 06:14:09;;;;;;;37.25;34.53;;;18.40;99.90;;;;;;5007308;28;20062;-76
2022/05/11 06:16:36;;;;;;;37.65;34.55;;;18.40;99.90;;;;;;5018008;28;20057;-75
2022/05/11 06:19:04;;;;;;;36.63;33.58;;;18.60;99.90;;;;;;5026848;28;20512;-77
2022/05/11 06:21:33;;;;;;;37.45;34.13;;;18.60;99.90;;;;;;5020768;28;20912;-76
2022/05/11 06:24:00;;;;;;;37.05;34.08;;;18.60;99.90;;;;;;4988887;28;20100;-76
2022/05/11 06:26:27;;;;;;;35.17;32.75;;;18.60;99.90;;;;;;5021593;28;20508;-76
2022/05/11 06:29:14;;;;;;;35.70;32.90;;;18.60;99.90;;;;;;5007440;28;20338;-76
2022/05/11 06:31:41;;;;;;;35.05;32.53;;;18.60;99.90;;;;;;5005344;28;20046;-77
2022/05/11 06:34:08;;;;;;;34.13;31.35;;;18.60;99.90;;;;;;5006433;28;20038;-78
2022/05/11 06:36:34;;;;;;;33.15;30.63;;;18.80;99.90;;;;;;5022420;28;20050;-79
2022/05/11 06:39:01;;;;;;;33.97;31.58;;;19.00;99.90;;;;;;5007290;28;20871;-80
2022/05/11 06:41:29;;;;;;;33.78;30.95;;;19.50;99.90;;;;;;4992389;28;20069;-80
2022/05/11 06:43:56;;;;;;;33.38;30.92;;;19.80;99.90;;;;;;5007961;28;20197;-79
2022/05/11 06:46:23;;;;;;;32.60;30.15;;;20.10;99.90;;;;;;5011653;28;20522;-79
2022/05/11 06:48:50;;;;;;;32.60;30.30;;;20.30;99.90;;;;;;5006880;28;20050;-79
2022/05/11 06:51:19;;;;;;;31.80;29.70;;;20.50;99.90;;;;;;4998364;28;20042;-79
2022/05/11 06:59:22;;;;;;;33.88;31.77;;;20.90;99.90;;;;;;5006407;28;20467;-79
2022/05/11 07:01:55;;;;;;;33.05;30.95;;;20.90;99.90;;;;;;5005282;28;20042;-80
2022/05/11 07:04:25;;;;;;;34.13;31.65;;;20.90;99.90;;;;;;5005785;28;20493;-80
2022/05/11 07:06:57;;;;;;;33.83;31.45;;;21.00;99.90;;;;;;5021383;28;20141;-79
2022/05/11 07:09:26;;;;;;;33.65;31.25;;;21.10;99.90;;;;;;5005594;28;20069;-79
2022/05/11 07:14:39;;;;;;;34.55;32.55;;;21.40;99.90;;;;;;5007540;28;20049;-79
2022/05/11 07:17:06;;;;;;;35.22;33.13;;;21.20;99.90;;;;;;5009926;28;20042;-79
2022/05/11 07:19:33;;;;;;;34.88;32.75;;;21.00;99.90;;;;;;5008723;28;20053;-79
2022/05/11 07:22:01;;;;;;;35.33;33.22;;;21.30;99.90;;;;;;5005459;28;20076;-81
2022/05/11 07:24:29;;;;;;;35.67;33.40;;;21.50;99.90;;;;;;4990122;28;20142;-80
2022/05/11 07:26:55;;;;;;;34.55;32.55;;;21.60;99.90;;;;;;4996000;28;20132;-79
2022/05/11 07:29:22;;;;;;;34.25;32.13;;;21.80;99.90;;;;;;5007112;28;20088;-80
2022/05/11 07:31:50;;;;;;;35.58;33.13;;;21.90;99.90;;;;;;5006893;28;20280;-79
2022/05/11 07:34:17;;;;;;;34.80;32.70;;;21.90;99.90;;;;;;5005084;28;20156;-79
2022/05/11 07:36:44;;;;;;;35.58;33.38;;;22.10;99.90;;;;;;5006087;28;20099;-80
2022/05/11 07:39:11;;;;;;;35.70;33.40;;;22.30;99.90;;;;;;5006323;28;20092;-79
2022/05/11 07:41:38;;;;;;;35.67;33.53;;;22.30;99.90;;;;;;5005846;28;20030;-79
2022/05/11 07:44:05;;;;;;;36.25;34.13;;;22.40;99.90;;;;;;5012602;28;20568;-80
2022/05/11 07:46:34;;;;;;;36.42;34.10;;;22.40;99.90;;;;;;5013006;28;20052;-79
2022/05/11 07:49:03;;;;;;;35.83;33.55;;;22.50;99.90;;;;;;5007101;28;20062;-80
2022/05/11 07:51:31;;;;;;;34.30;32.17;;;22.80;99.90;;;;;;5005135;28;20050;-80
2022/05/11 07:53:58;;;;;;;34.85;32.72;;;22.80;99.90;;;;;;5005791;28;20061;-79
2022/05/11 08:01:56;;;;;;;35.50;33.30;;;23.30;99.90;;;;;;5006071;28;20065;-79
2022/05/11 08:04:23;;;;;;;35.80;33.70;;;23.20;99.90;;;;;;5022083;28;20077;-79
2022/05/11 08:06:50;;;;;;;35.58;33.15;;;23.50;99.90;;;;;;5005081;28;20069;-79
2022/05/11 08:09:17;;;;;;;35.92;33.35;;;23.30;99.90;;;;;;5005560;28;20045;-79
2022/05/11 08:14:19;;;;;;;34.03;31.85;;;23.20;99.90;;;;;;5007796;28;20115;-75
2022/05/11 08:16:47;;;;;;;35.15;33.10;;;23.30;99.90;;;;;;4980311;28;20144;-75
2022/05/11 08:19:13;;;;;;;34.30;31.98;;;23.50;99.90;;;;;;4988645;28;20111;-76
2022/05/11 08:21:41;;;;;;;33.40;31.45;;;23.80;99.90;;;;;;5004971;28;20546;-75
2022/05/11 08:24:08;;;;;;;33.70;31.60;;;24.00;99.90;;;;;;4998165;28;20039;-75
2022/05/11 08:26:34;;;;;;;33.83;31.48;;;24.10;99.90;;;;;;4968970;28;20439;-75
2022/05/11 08:29:01;;;;;;;35.08;32.97;;;24.20;99.90;;;;;;4969317;28;20134;-74
2022/05/11 08:34:13;;;;;;;;;;;24.10;99.90;;;;;;4985774;28;20042;-74
2022/05/11 08:36:41;;;;;;;35.63;33.42;;;24.10;99.90;;;;;;4985886;28;19925;-74
2022/05/11 08:39:07;;;;;;;32.67;30.55;;;24.30;99.90;;;;;;4986674;23;20046;-71
2022/05/11 08:41:52;;;;;;;32.97;30.98;;;24.40;99.90;;;;;;4974670;28;20057;-70
2022/05/11 08:44:22;;;;;;;33.33;31.03;;;24.60;99.90;;;;;;4980914;28;20186;-74
2022/05/11 08:47:18;;;;;;;33.25;31.05;;;24.60;99.90;;;;;;4978042;28;20050;-72
2022/05/11 08:49:53;;;;;;;33.10;31.08;;;24.80;99.90;;;;;;4980537;28;20080;-72
2022/05/11 08:53:02;;;;;;;34.47;32.13;;;24.80;99.90;;;;;;4977537;28;20122;-73
2022/05/11 08:55:50;;;;;;;34.55;32.33;;;24.90;99.90;;;;;;4976058;28;20046;-70
2022/05/11 08:58:32;;;;;;;34.30;32.08;;;24.80;99.90;;;;;;4979565;28;20109;-71
2022/05/11 09:01:01;;;;;;;34.55;32.58;;;24.80;99.90;;;;;;4978703;28;20046;-73
2022/05/11 09:03:39;;;;;;;35.53;33.33;;;24.60;99.90;;;;;;4977740;28;20479;-73
2022/05/11 09:06:14;;;;;;;34.85;32.72;;;24.30;99.90;;;;;;4979259;28;20046;-73
2022/05/11 09:08:40;;;;;;;32.83;30.58;;;24.20;99.90;;;;;;4976680;28;20062;-73
2022/05/11 09:11:12;;;;;;;34.78;32.30;;;24.50;99.90;;;;;;4979586;28;20054;-73
2022/05/11 09:13:42;;;;;;;33.28;31.08;;;24.90;99.90;;;;;;4974706;28;20316;-73
2022/05/11 09:16:42;;;;;;;34.25;32.03;;;25.00;99.90;;;;;;4980371;28;20046;-73
2022/05/11 09:19:19;;;;;;;34.35;31.92;;;25.00;99.90;;;;;;4977173;28;20462;-74
2022/05/11 09:22:12;;;;;;;33.85;31.90;;;25.30;99.90;;;;;;4980101;28;20061;-74
2022/05/11 09:24:50;;;;;;;33.70;31.48;;;25.50;99.90;;;;;;4976520;28;20050;-75
2022/05/11 09:27:26;;;;;;;33.67;31.40;;;25.50;99.90;;;;;;4980401;28;20049;-75
2022/05/11 09:30:06;;;;;;;33.53;31.45;;;25.60;99.90;;;;;;4980073;28;20058;-72
2022/05/11 09:32:42;;;;;;;33.33;31.33;;;25.70;99.90;;;;;;4963217;28;20050;-74
2022/05/11 09:35:21;;;;;;;34.20;31.55;;;25.90;99.90;;;;;;4979559;28;20546;-73
2022/05/11 09:38:15;;;;;;;32.65;30.60;;;26.00;99.90;;;;;;4973183;28;20062;-71
2022/05/11 09:40:58;;;;;;;31.33;29.45;;;26.10;99.90;;;;;;4974148;28;20819;-72
2022/05/11 09:43:41;;;;;;;33.38;31.27;;;25.70;99.90;;;;;;4972435;28;20054;-71
2022/05/11 09:46:19;;;;;;;33.92;31.80;;;25.20;99.90;;;;;;4981940;28;20050;-71
2022/05/11 09:49:15;;;;;;;33.42;31.33;;;25.30;99.90;;;;;;4975962;28;20054;-72
2022/05/11 09:51:56;;;;;;;34.20;31.75;;;25.50;99.90;;;;;;4966102;28;20042;-72
2022/05/11 09:54:37;;;;;;;33.92;31.55;;;25.60;99.90;;;;;;4970575;28;20054;-72
2022/05/11 09:57:09;;;;;;;33.10;31.10;;;25.60;99.90;;;;;;4979299;28;20054;-71
2022/05/11 09:59:44;;;;;;;33.22;31.27;;;25.90;99.90;;;;;;4979465;28;20054;-72
2022/05/11 10:02:13;;;;;;;31.70;29.48;;;25.90;99.90;;;;;;4975735;28;20050;-72
2022/05/11 10:04:44;;;;;;;34.33;31.80;;;25.90;99.90;;;;;;4978964;28;20058;-72
2022/05/11 10:07:15;;;;;;;32.88;30.77;;;25.80;99.90;;;;;;4978107;28;20507;-71
2022/05/11 10:09:48;;;;;;;31.95;30.00;;;25.90;99.90;;;;;;4976114;28;20396;-72
2022/05/11 10:12:22;;;;;;;31.80;29.88;;;25.60;99.90;;;;;;4977435;28;20089;-72
2022/05/11 10:24:24;;;;;;;33.78;31.67;;;25.90;99.90;;;;;;4967782;28;20038;-73
2022/05/11 10:27:24;;;;;;;34.15;32.13;;;25.80;99.90;;;;;;4978305;28;20485;-71
2022/05/11 10:30:21;;;;;;;33.15;30.92;;;25.70;99.90;;;;;;4959561;28;20069;-72
2022/05/11 10:33:18;;;;;;;32.08;30.17;;;25.50;99.90;;;;;;4959452;28;20058;-71
2022/05/11 10:35:57;;;;;;;33.53;30.67;;;25.70;99.90;;;;;;4959706;28;20042;-70
2022/05/11 10:39:03;;;;;;;32.42;30.60;;;25.60;99.90;;;;;;4964443;28;20043;-70
2022/05/11 10:41:32;;;;;;;31.63;29.77;;;25.50;99.90;;;;;;4971867;28;20559;-71
2022/05/11 10:44:24;;;;;;;32.70;30.63;;;25.50;99.90;;;;;;4978946;28;20050;-71
2022/05/11 10:47:10;;;;;;;32.20;29.85;;;25.60;99.90;;;;;;4977525;28;20104;-72
2022/05/11 10:49:49;;;;;;;31.45;29.10;;;25.80;99.90;;;;;;4976761;28;20121;-73
2022/05/11 10:52:53;;;;;;;31.13;29.33;;;25.70;99.90;;;;;;4956692;28;20058;-69
2022/05/11 10:55:42;;;;;;;30.58;28.85;;;25.70;99.90;;;;;;4956720;28;20066;-73
2022/05/11 10:58:48;;;;;;;31.13;28.92;;;25.80;99.90;;;;;;4959186;28;20507;-73
2022/05/11 11:01:16;;;;;;;32.28;30.30;;;25.40;99.90;;;;;;4968721;28;20046;-70
2022/05/11 11:04:17;;;;;;;32.90;30.67;;;25.60;99.90;;;;;;4980170;28;20055;-69
2022/05/11 11:07:14;;;;;;;30.80;28.92;;;25.80;99.90;;;;;;4980627;28;20065;-70
2022/05/11 11:10:05;;;;;;;33.13;31.33;;;25.90;99.90;;;;;;4978727;28;20054;-70
2022/05/11 11:12:47;;;;;;;32.60;30.35;;;25.60;99.90;;;;;;4981194;28;20478;-73
2022/05/11 11:15:17;;;;;;;31.70;29.63;;;25.50;99.90;;;;;;4982491;28;20514;-72
2022/05/11 11:17:46;;;;;;;30.88;28.98;;;25.60;99.90;;;;;;4980491;28;20050;-71
2022/05/11 11:20:18;;;;;;;30.40;28.70;;;25.90;99.90;;;;;;4981305;28;20523;-70
2022/05/11 11:23:12;;;;;;;33.28;30.65;;;25.90;99.90;;;;;;4979504;28;20058;-73
2022/05/11 11:25:52;;;;;;;32.80;30.90;;;25.40;99.70;;;;;;4960429;28;20077;-71
2022/05/11 11:28:33;;;;;;;33.60;31.50;;;25.40;99.90;;;;;;4959787;28;20204;-70
2022/05/11 11:31:00;;;;;;;32.78;30.73;;;25.40;99.90;;;;;;4974688;28;20078;-73
2022/05/11 11:33:27;;;;;;;32.78;30.77;;;25.90;99.90;;;;;;4979027;28;20046;-70
2022/05/11 11:35:54;;;;;;;31.63;29.90;;;26.00;99.90;;;;;;4977992;28;20729;-71
2022/05/11 11:38:48;;;;;;;32.55;30.40;;;26.00;98.50;;;;;;4980775;28;20050;-72
2022/05/11 11:41:21;;;;;;;32.47;30.70;;;25.60;99.70;;;;;;4975467;28;20042;-71
2022/05/11 11:43:53;;;;;;;32.88;30.88;;;25.60;99.90;;;;;;4983222;28;20049;-72
2022/05/11 11:46:31;;;;;;;33.40;31.35;;;25.70;99.90;;;;;;4974171;28;20382;-73
2022/05/11 11:49:18;;;;;;;33.22;31.38;;;25.70;99.90;;;;;;4999294;28;20053;-71
2022/05/11 11:52:02;;;;;;;31.25;29.35;;;25.90;99.90;;;;;;4974232;28;20602;-71
2022/05/11 11:54:38;;;;;;;30.85;29.02;;;26.00;99.90;;;;;;4979671;28;20543;-71
2022/05/11 11:57:06;;;;;;;32.03;29.67;;;26.20;99.90;;;;;;4978134;28;20510;-72
2022/05/11 11:59:41;;;;;;;30.98;29.15;;;26.40;99.90;;;;;;4979423;28;20116;-70
2022/05/11 12:02:26;;;;;;;32.40;30.10;;;26.40;99.90;;;;;;4979110;28;20271;-70
2022/05/11 12:05:07;;;;;;;31.95;30.25;;;26.30;99.90;;;;;;4975335;28;20109;-72
2022/05/11 12:16:24;;;;;;;31.63;29.83;;;26.40;99.90;;;;;;4996185;28;20509;-71
2022/05/11 12:18:52;;;;;;;32.53;30.30;;;26.40;99.90;;;;;;4998625;28;20512;-71
2022/05/11 12:21:34;;;;;;;32.00;29.95;;;26.30;99.90;;;;;;4994438;28;20297;-71
2022/05/11 12:24:04;;;;;;;32.20;30.05;;;26.60;99.90;;;;;;4978679;28;20058;-71
2022/05/11 12:26:39;;;;;;;32.03;30.02;;;26.60;99.90;;;;;;4977494;28;20054;-70
2022/05/11 12:32:01;;;;;;;32.72;30.35;;;26.40;99.90;;;;;;4979205;28;20043;-71
2022/05/11 12:34:30;;;;;;;32.78;30.73;;;26.20;99.90;;;;;;4978209;28;20104;-72
2022/05/11 12:36:57;;;;;;;34.25;31.85;;;26.60;99.90;;;;;;4979136;28;20054;-71
2022/05/11 12:39:35;;;;;;;34.10;31.95;;;26.70;99.90;;;;;;4977130;28;20062;-71
2022/05/11 12:42:03;;;;;;;35.08;32.70;;;26.90;99.90;;;;;;4976329;28;20085;-71
2022/05/11 12:44:34;;;;;;;35.25;33.00;;;26.90;99.90;;;;;;4988198;28;20054;-71
2022/05/11 12:47:05;;;;;;;33.13;31.23;;;26.80;99.90;;;;;;4976593;28;20149;-70
2022/05/11 12:49:32;;;;;;;33.88;31.55;;;26.80;99.90;;;;;;4976487;28;20531;-71
2022/05/11 12:52:05;;;;;;;33.88;31.98;;;26.90;99.90;;;;;;4957671;28;20053;-71
2022/05/11 12:54:32;;;;;;;33.60;31.30;;;26.70;99.90;;;;;;4976844;28;20530;-70
2022/05/11 12:57:08;;;;;;;35.45;32.85;;;26.80;99.90;;;;;;4976839;28;20066;-71
2022/05/11 12:59:35;;;;;;;33.88;31.60;;;27.00;99.90;;;;;;4979474;28;20112;-72
2022/05/11 13:02:33;;;;;;;34.20;32.10;;;27.10;99.60;;;;;;4976116;28;20042;-71
2022/05/11 13:05:05;;;;;;;33.13;31.08;;;26.90;99.90;;;;;;4958001;28;20403;-71
2022/05/11 13:07:43;;;;;;;34.40;32.42;;;27.20;99.90;;;;;;4958050;28;20274;-71
2022/05/11 13:10:16;;;;;;;35.60;33.00;;;27.30;99.90;;;;;;4973313;28;20591;-72
2022/05/11 13:12:49;;;;;;;35.30;33.20;;;27.30;99.90;;;;;;4976371;28;20065;-72
2022/05/11 13:15:37;;;;;;;34.83;32.55;;;27.40;99.90;;;;;;4983470;28;20049;-72
2022/05/11 13:18:08;;;;;;;34.03;31.75;;;27.50;99.90;;;;;;4979288;28;20050;-71
2022/05/11 13:20:40;;;;;;;33.22;31.27;;;27.30;99.90;;;;;;4976936;28;20054;-71
2022/05/11 13:23:50;;;;;;;34.75;32.08;;;26.90;99.90;;;;;;4976981;28;20618;-72
2022/05/11 13:26:38;;;;;;;34.42;32.10;;;27.20;99.90;;;;;;4975480;28;20422;-71
2022/05/11 13:29:20;;;;;;;34.35;32.17;;;27.20;99.90;;;;;;4977623;28;20057;-73
2022/05/11 13:32:08;;;;;;;33.17;31.17;;;26.80;99.90;;;;;;4966413;28;20529;-71
2022/05/11 13:34:37;;;;;;;34.40;32.40;;;26.60;99.90;;;;;;4972727;28;20050;-72
2022/05/11 13:37:05;;;;;;;34.88;32.45;;;26.80;99.90;;;;;;4976326;28;20050;-72
2022/05/11 13:39:37;;;;;;;34.10;31.83;;;27.00;99.90;;;;;;4975851;28;20081;-72
2022/05/11 13:42:15;;;;;;;33.80;31.70;;;27.00;99.90;;;;;;4973176;28;20312;-71
2022/05/11 13:44:49;;;;;;;34.40;31.83;;;27.10;99.90;;;;;;4980137;28;20107;-70
2022/05/11 13:50:16;;;;;;;35.10;32.80;;;27.10;99.90;;;;;;4975329;28;20097;-71
2022/05/11 13:52:53;;;;;;;34.85;32.75;;;27.00;99.90;;;;;;4976339;28;20050;-70